createdAt,value
2023-04-28T00:01:31.383Z,100.00
2023-04-28T00:08:13.399Z,100.00
2023-04-28T00:10:40.505Z,100.00
2023-04-28T00:13:07.547Z,100.00
2023-04-28T00:15:34.746Z,100.00
2023-04-28T00:18:01.773Z,100.00
2023-04-28T00:20:28.864Z,100.00
2023-04-28T00:22:56.063Z,100.00
2023-04-28T00:25:23.088Z,100.00
2023-04-28T00:27:50.358Z,100.00
2023-04-28T00:30:17.665Z,100.00
2023-04-28T00:32:44.685Z,100.00
2023-04-28T00:35:11.789Z,100.00
2023-04-28T00:37:39.307Z,100.00
2023-04-28T00:40:07.095Z,100.00
2023-04-28T00:42:34.103Z,100.00
2023-04-28T00:45:06.014Z,100.00
2023-04-28T00:47:33.985Z,100.00
2023-04-28T00:50:01.768Z,100.00
2023-04-28T00:52:29.555Z,100.00
2023-04-28T00:54:56.953Z,100.00
2023-04-28T00:57:23.999Z,100.00
2023-04-28T00:59:51.013Z,100.00
2023-04-28T01:02:19.475Z,100.00
2023-04-28T01:04:46.633Z,100.00
2023-04-28T01:07:14.205Z,100.00
2023-04-28T01:09:41.352Z,100.00
2023-04-28T01:12:08.740Z,100.00
2023-04-28T01:14:49.405Z,100.00
2023-04-28T01:17:16.655Z,100.00
2023-04-28T01:19:43.770Z,100.00
2023-04-28T01:22:11.743Z,100.00
2023-04-28T01:24:38.800Z,100.00
2023-04-28T01:27:06.957Z,100.00
2023-04-28T01:29:33.947Z,100.00
2023-04-28T01:32:01.097Z,100.00
2023-04-28T01:34:28.066Z,100.00
2023-04-28T01:36:55.132Z,100.00
2023-04-28T01:39:22.191Z,100.00
2023-04-28T01:41:49.238Z,100.00
2023-04-28T01:44:16.370Z,100.00
2023-04-28T01:46:43.423Z,100.00
2023-04-28T01:49:10.484Z,99.97
2023-04-28T01:51:37.424Z,99.95
2023-04-28T01:54:05.104Z,99.89
2023-04-28T01:56:32.181Z,99.96
2023-04-28T01:58:59.219Z,100.00
2023-04-28T02:01:26.389Z,99.98
2023-04-28T02:03:55.466Z,99.99
2023-04-28T02:06:23.541Z,99.93
2023-04-28T02:08:50.826Z,99.99
2023-04-28T02:11:17.768Z,100.00
2023-04-28T02:13:44.788Z,99.79
2023-04-28T02:16:11.898Z,99.71
2023-04-28T02:18:38.842Z,99.71
2023-04-28T02:21:12.303Z,99.68
2023-04-28T02:23:40.007Z,99.62
2023-04-28T02:26:07.043Z,99.57
2023-04-28T02:28:34.180Z,99.90
2023-04-28T02:31:08.089Z,100.00
2023-04-28T02:33:35.347Z,100.00
2023-04-28T02:36:03.248Z,100.00
2023-04-28T02:38:30.271Z,100.00
2023-04-28T02:41:01.163Z,100.00
2023-04-28T02:43:28.651Z,100.00
2023-04-28T02:45:55.741Z,100.00
2023-04-28T02:48:23.252Z,100.00
2023-04-28T02:50:50.371Z,100.00
2023-04-28T02:53:17.357Z,100.00
2023-04-28T02:55:44.387Z,100.00
2023-04-28T02:58:11.640Z,100.00
2023-04-28T03:00:38.774Z,100.00
2023-04-28T03:03:05.924Z,100.00
2023-04-28T03:05:33.112Z,100.00
2023-04-28T03:08:00.769Z,100.00
2023-04-28T03:10:27.771Z,100.00
2023-04-28T03:12:54.696Z,100.00
2023-04-28T03:15:21.678Z,100.00
2023-04-28T03:17:48.897Z,100.00
2023-04-28T03:20:16.505Z,100.00
2023-04-28T03:22:43.450Z,100.00
2023-04-28T03:25:10.658Z,100.00
2023-04-28T03:27:44.959Z,100.00
2023-04-28T03:30:12.276Z,99.97
2023-04-28T03:32:39.340Z,99.98
2023-04-28T03:35:06.818Z,100.00
2023-04-28T03:37:33.912Z,100.00
2023-04-28T03:40:00.958Z,99.97
2023-04-28T03:42:28.492Z,100.00
2023-04-28T03:45:06.309Z,100.00
2023-04-28T03:47:33.787Z,100.00
2023-04-28T03:50:00.877Z,100.00
2023-04-28T03:52:27.885Z,100.00
2023-04-28T03:54:55.439Z,100.00
2023-04-28T03:57:22.389Z,100.00
2023-04-28T03:59:52.184Z,100.00
2023-04-28T04:02:19.284Z,100.00
2023-04-28T04:04:46.617Z,99.91
2023-04-28T04:07:13.802Z,99.51
2023-04-28T04:09:40.899Z,99.23
2023-04-28T04:12:08.267Z,99.01
2023-04-28T04:14:35.379Z,98.64
2023-04-28T04:17:02.408Z,98.39
2023-04-28T04:19:29.501Z,98.08
2023-04-28T04:21:56.868Z,97.37
2023-04-28T04:24:23.972Z,97.09
2023-04-28T04:26:50.924Z,97.00
2023-04-28T04:29:35.438Z,96.90
2023-04-28T04:32:06.845Z,96.51
2023-04-28T04:34:34.052Z,96.24
2023-04-28T04:37:01.470Z,96.13
2023-04-28T04:39:28.799Z,95.67
2023-04-28T04:41:55.871Z,95.68
2023-04-28T04:44:33.464Z,95.39
2023-04-28T04:47:00.785Z,95.31
2023-04-28T04:49:27.890Z,95.04
2023-04-28T04:51:55.211Z,94.95
2023-04-28T04:54:22.194Z,94.60
2023-04-28T04:56:49.191Z,94.41
2023-04-28T04:59:21.003Z,94.82
2023-04-28T05:02:10.127Z,94.24
2023-04-28T05:04:37.248Z,94.09
2023-04-28T05:07:04.521Z,94.32
2023-04-28T05:09:33.252Z,94.36
2023-04-28T05:12:00.400Z,94.40
2023-04-28T05:14:27.405Z,94.81
2023-04-28T05:16:55.351Z,94.44
2023-04-28T05:19:25.694Z,94.24
2023-04-28T05:21:54.836Z,94.87
2023-04-28T05:24:23.912Z,95.78
2023-04-28T05:26:52.047Z,96.05
2023-04-28T05:29:19.395Z,95.58
2023-04-28T05:31:46.422Z,95.86
2023-04-28T05:34:14.496Z,95.79
2023-04-28T05:36:41.929Z,95.80
2023-04-28T05:39:11.071Z,95.83
2023-04-28T05:41:38.934Z,95.28
2023-04-28T05:44:06.319Z,94.95
2023-04-28T05:46:33.938Z,95.05
2023-04-28T05:49:01.351Z,94.91
2023-04-28T05:51:33.809Z,95.26
2023-04-28T05:54:02.108Z,95.31
2023-04-28T05:56:29.549Z,95.60
2023-04-28T05:58:58.892Z,95.59
2023-04-28T06:01:26.431Z,95.13
2023-04-28T06:03:54.105Z,94.80
2023-04-28T06:06:21.953Z,95.04
2023-04-28T06:08:49.029Z,94.35
2023-04-28T06:11:16.202Z,92.21
2023-04-28T06:13:43.134Z,91.11
2023-04-28T06:16:10.061Z,90.19
2023-04-28T06:18:37.027Z,89.59
2023-04-28T06:21:04.251Z,88.85
2023-04-28T06:23:31.499Z,87.86
2023-04-28T06:25:58.572Z,86.70
2023-04-28T06:28:25.549Z,85.15
2023-04-28T06:30:53.522Z,84.84
2023-04-28T06:33:20.486Z,84.48
2023-04-28T06:35:47.400Z,84.01
2023-04-28T06:38:15.792Z,83.27
2023-04-28T06:40:42.797Z,83.12
2023-04-28T06:43:09.839Z,83.23
2023-04-28T06:45:44.845Z,82.91
2023-04-28T06:48:12.003Z,82.23
2023-04-28T06:50:41.785Z,80.41
2023-04-28T06:53:12.213Z,79.68
2023-04-28T06:55:39.321Z,79.06
2023-04-28T06:58:06.360Z,78.30
2023-04-28T07:00:34.558Z,77.83
2023-04-28T07:03:01.760Z,77.67
2023-04-28T07:05:29.153Z,77.55
2023-04-28T07:07:56.579Z,76.07
2023-04-28T07:10:24.013Z,73.78
2023-04-28T07:12:52.506Z,71.99
2023-04-28T07:15:19.635Z,67.93
2023-04-28T07:17:46.678Z,66.23
2023-04-28T07:20:14.920Z,65.49
2023-04-28T07:22:42.154Z,61.98
2023-04-28T07:25:09.478Z,60.27
2023-04-28T07:27:36.990Z,55.76
2023-04-28T07:30:14.858Z,54.47
2023-04-28T07:32:46.137Z,54.69
2023-04-28T07:35:13.086Z,54.50
2023-04-28T07:37:40.194Z,53.25
2023-04-28T07:40:07.814Z,52.94
2023-04-28T07:42:34.936Z,52.73
2023-04-28T07:45:01.937Z,52.85
2023-04-28T07:47:29.487Z,53.41
2023-04-28T07:49:56.765Z,51.68
2023-04-28T07:52:23.871Z,51.18
2023-04-28T07:54:50.943Z,51.22
2023-04-28T07:57:17.987Z,49.67
2023-04-28T07:59:44.989Z,49.83
2023-04-28T08:02:13.598Z,50.45
2023-04-28T08:04:41.056Z,49.35
2023-04-28T08:07:09.271Z,49.32
2023-04-28T08:09:36.425Z,48.73
2023-04-28T08:12:03.596Z,48.61
2023-04-28T08:14:30.869Z,49.03
2023-04-28T08:16:57.944Z,48.57
2023-04-28T08:19:25.296Z,48.10
2023-04-28T08:21:52.318Z,47.65
2023-04-28T08:24:19.363Z,47.37
2023-04-28T08:26:46.369Z,47.92
2023-04-28T08:29:13.356Z,47.69
2023-04-28T08:31:40.391Z,47.45
2023-04-28T08:34:07.522Z,47.08
2023-04-28T08:36:35.268Z,47.19
2023-04-28T08:39:04.266Z,46.40
2023-04-28T08:41:32.791Z,46.30
2023-04-28T08:43:59.747Z,46.83
2023-04-28T08:46:27.717Z,47.43
2023-04-28T08:48:59.355Z,46.65
2023-04-28T08:51:31.248Z,46.51
2023-04-28T08:54:19.053Z,46.18
2023-04-28T08:56:46.188Z,45.85
2023-04-28T08:59:13.411Z,46.14
2023-04-28T09:01:40.406Z,46.31
2023-04-28T09:04:07.734Z,46.52
2023-04-28T09:06:35.648Z,45.24
2023-04-28T09:09:22.109Z,44.89
2023-04-28T09:11:59.853Z,43.94
2023-04-28T09:14:30.924Z,43.78
2023-04-28T09:16:57.943Z,43.97
2023-04-28T09:19:25.470Z,44.20
2023-04-28T09:21:56.828Z,44.39
2023-04-28T09:24:34.042Z,44.19
2023-04-28T09:27:02.548Z,44.52
2023-04-28T09:29:29.699Z,44.55
2023-04-28T09:32:19.001Z,43.90
2023-04-28T09:34:50.400Z,43.71
2023-04-28T09:37:18.265Z,43.91
2023-04-28T09:39:45.918Z,44.31
2023-04-28T09:42:35.370Z,43.98
2023-04-28T09:45:03.525Z,43.60
2023-04-28T09:47:32.822Z,43.91
2023-04-28T09:50:01.235Z,44.67
2023-04-28T09:52:28.421Z,44.24
2023-04-28T09:54:56.660Z,43.59
2023-04-28T09:57:23.720Z,43.86
2023-04-28T09:59:51.696Z,43.53
2023-04-28T10:02:41.998Z,43.12
2023-04-28T10:05:11.535Z,43.49
2023-04-28T10:07:39.373Z,42.46
2023-04-28T10:10:07.865Z,42.64
2023-04-28T10:12:35.334Z,42.81
2023-04-28T10:15:02.286Z,42.93
2023-04-28T10:17:29.883Z,43.91
2023-04-28T10:19:57.619Z,42.78
2023-04-28T10:22:46.927Z,41.96
2023-04-28T10:25:23.192Z,42.50
2023-04-28T10:27:50.371Z,43.00
2023-04-28T10:30:28.085Z,42.60
2023-04-28T10:33:22.978Z,42.82
2023-04-28T10:35:50.003Z,42.59
2023-04-28T10:38:17.948Z,42.79
2023-04-28T10:40:52.092Z,42.94
2023-04-28T10:43:28.796Z,42.44
2023-04-28T10:46:02.231Z,41.95
2023-04-28T10:48:29.832Z,41.29
2023-04-28T10:51:06.937Z,41.24
2023-04-28T10:53:46.704Z,41.67
2023-04-28T10:56:18.781Z,41.63
2023-04-28T10:58:46.653Z,41.83
2023-04-28T11:01:24.914Z,41.60
2023-04-28T11:04:11.044Z,41.25
2023-04-28T11:06:40.286Z,41.63
2023-04-28T11:09:16.025Z,41.54
2023-04-28T11:11:56.339Z,41.12
2023-04-28T11:14:23.456Z,40.60
2023-04-28T11:16:50.991Z,40.82
2023-04-28T11:19:22.022Z,40.73
2023-04-28T11:21:49.270Z,41.12
2023-04-28T11:24:16.456Z,41.42
2023-04-28T11:26:44.076Z,41.31
2023-04-28T11:29:11.839Z,41.32
2023-04-28T11:31:38.813Z,41.78
2023-04-28T11:34:06.669Z,40.74
2023-04-28T11:36:38.030Z,40.04
2023-04-28T11:39:07.778Z,40.25
2023-04-28T11:41:35.890Z,39.85
2023-04-28T11:44:16.180Z,39.91
2023-04-28T11:46:56.488Z,40.71
2023-04-28T11:49:28.482Z,41.69
2023-04-28T11:52:00.467Z,41.97
2023-04-28T11:54:28.828Z,41.17
2023-04-28T11:56:57.683Z,41.30
2023-04-28T11:59:28.951Z,40.90
2023-04-28T12:01:59.455Z,40.69
2023-04-28T12:04:38.015Z,41.05
2023-04-28T12:07:15.224Z,41.43
2023-04-28T12:09:46.852Z,40.56
2023-04-28T12:12:17.173Z,40.35
2023-04-28T12:15:01.711Z,40.36
2023-04-28T12:17:30.275Z,40.53
2023-04-28T12:19:57.966Z,40.89
2023-04-28T12:22:25.097Z,40.97
2023-04-28T12:25:06.982Z,40.86
2023-04-28T12:27:34.853Z,40.57
2023-04-28T12:30:02.683Z,40.76
2023-04-28T12:32:43.641Z,40.88
2023-04-28T12:35:10.598Z,40.85
2023-04-28T12:37:38.982Z,40.69
2023-04-28T12:40:06.800Z,41.24
2023-04-28T12:42:33.762Z,41.67
2023-04-28T12:45:00.767Z,41.80
2023-04-28T12:47:28.089Z,41.53
2023-04-28T12:49:55.066Z,40.44
2023-04-28T12:52:22.733Z,40.22
2023-04-28T12:54:50.229Z,40.40
2023-04-28T12:57:17.726Z,40.17
2023-04-28T12:59:45.680Z,40.29
2023-04-28T13:02:14.007Z,40.45
2023-04-28T13:04:43.235Z,40.78
2023-04-28T13:07:10.316Z,40.99
2023-04-28T13:09:38.550Z,40.51
2023-04-28T13:12:05.780Z,40.39
2023-04-28T13:14:33.312Z,40.46
2023-04-28T13:17:00.619Z,40.58
2023-04-28T13:19:28.007Z,40.56
2023-04-28T13:21:55.081Z,40.16
2023-04-28T13:24:22.189Z,40.50
2023-04-28T13:26:49.178Z,40.95
2023-04-28T13:29:16.266Z,41.41
2023-04-28T13:31:43.464Z,41.41
2023-04-28T13:34:16.086Z,41.57
2023-04-28T13:36:44.025Z,41.72
2023-04-28T13:39:16.832Z,41.34
2023-04-28T13:41:43.748Z,41.46
2023-04-28T13:44:10.947Z,41.69
2023-04-28T13:46:37.847Z,41.85
2023-04-28T13:49:05.090Z,41.55
2023-04-28T13:51:35.443Z,41.38
2023-04-28T13:54:05.599Z,41.49
2023-04-28T13:56:32.849Z,41.68
2023-04-28T13:58:59.935Z,41.72
2023-04-28T14:01:27.152Z,42.13
2023-04-28T14:03:54.392Z,42.32
2023-04-28T14:06:21.945Z,42.70
2023-04-28T14:08:48.906Z,43.11
2023-04-28T14:11:15.888Z,43.23
2023-04-28T14:13:43.568Z,43.25
2023-04-28T14:16:10.529Z,42.27
2023-04-28T14:18:37.656Z,42.43
2023-04-28T14:21:08.186Z,42.37
2023-04-28T14:23:38.772Z,42.34
2023-04-28T14:26:05.787Z,41.68
2023-04-28T14:28:32.762Z,41.40
2023-04-28T14:31:03.941Z,41.79
2023-04-28T14:33:30.892Z,42.30
2023-04-28T14:35:57.911Z,42.03
2023-04-28T14:38:24.875Z,42.35
2023-04-28T14:40:51.829Z,42.91
2023-04-28T14:43:18.808Z,42.88
2023-04-28T14:45:46.376Z,42.98
2023-04-28T14:48:14.452Z,43.00
2023-04-28T14:50:43.168Z,42.65
2023-04-28T14:53:10.144Z,42.79
2023-04-28T14:55:37.106Z,43.04
2023-04-28T14:58:04.616Z,43.54
2023-04-28T15:00:31.632Z,43.59
2023-04-28T15:02:58.707Z,42.88
2023-04-28T15:05:25.817Z,42.79
2023-04-28T15:07:52.899Z,42.51
2023-04-28T15:10:19.859Z,42.42
2023-04-28T15:12:48.508Z,42.73
2023-04-28T15:15:15.582Z,42.88
2023-04-28T15:17:42.566Z,42.72
2023-04-28T15:20:09.754Z,42.73
2023-04-28T15:22:37.617Z,41.99
2023-04-28T15:25:04.898Z,41.70
2023-04-28T15:27:32.346Z,41.81
2023-04-28T15:29:59.327Z,41.46
2023-04-28T15:32:27.295Z,41.13
2023-04-28T15:34:55.446Z,41.64
2023-04-28T15:37:37.839Z,41.99
2023-04-28T15:40:09.406Z,41.71
2023-04-28T15:42:37.713Z,42.12
2023-04-28T15:45:10.501Z,41.67
2023-04-28T15:47:39.180Z,41.19
2023-04-28T15:50:08.584Z,40.98
2023-04-28T15:52:35.936Z,41.01
2023-04-28T15:55:03.045Z,41.39
2023-04-28T15:57:29.956Z,41.77
2023-04-28T15:59:57.025Z,42.09
2023-04-28T16:02:24.393Z,42.77
2023-04-28T16:04:51.888Z,43.04
2023-04-28T16:07:19.011Z,42.95
2023-04-28T16:09:46.054Z,43.04
2023-04-28T16:12:13.097Z,43.31
2023-04-28T16:14:40.094Z,43.24
2023-04-28T16:17:07.721Z,43.63
2023-04-28T16:19:34.891Z,44.08
2023-04-28T16:22:01.869Z,44.18
2023-04-28T16:24:28.923Z,43.60
2023-04-28T16:26:56.147Z,43.79
2023-04-28T16:29:23.795Z,43.42
2023-04-28T16:31:50.878Z,43.58
2023-04-28T16:34:19.432Z,43.51
2023-04-28T16:36:46.692Z,43.12
2023-04-28T16:39:13.623Z,42.70
2023-04-28T16:41:40.728Z,43.12
2023-04-28T16:44:08.574Z,43.22
2023-04-28T16:46:35.709Z,43.24
2023-04-28T16:49:02.622Z,43.39
2023-04-28T16:51:29.590Z,43.50
2023-04-28T16:53:56.467Z,43.61
2023-04-28T16:56:23.432Z,43.88
2023-04-28T16:58:50.426Z,44.04
2023-04-28T17:01:17.462Z,44.29
2023-04-28T17:03:45.100Z,44.63
2023-04-28T17:06:12.383Z,44.96
2023-04-28T17:08:42.398Z,45.20
2023-04-28T17:11:09.463Z,45.52
2023-04-28T17:13:36.449Z,45.48
2023-04-28T17:16:04.181Z,45.46
2023-04-28T17:18:31.435Z,45.81
2023-04-28T17:20:58.420Z,46.19
2023-04-28T17:23:27.881Z,46.29
2023-04-28T17:25:54.866Z,46.87
2023-04-28T17:28:25.401Z,47.17
2023-04-28T17:30:55.981Z,47.35
2023-04-28T17:33:23.017Z,47.65
2023-04-28T17:35:50.274Z,47.91
2023-04-28T17:38:17.263Z,47.97
2023-04-28T17:40:48.781Z,48.40
2023-04-28T17:43:20.506Z,48.29
2023-04-28T17:45:47.553Z,48.29
2023-04-28T17:48:14.705Z,48.43
2023-04-28T17:50:42.070Z,48.44
2023-04-28T17:53:09.061Z,48.52
2023-04-28T17:55:36.151Z,48.68
2023-04-28T17:58:03.228Z,48.81
2023-04-28T18:00:30.366Z,49.19
2023-04-28T18:02:58.544Z,49.29
2023-04-28T18:05:26.531Z,49.45
2023-04-28T18:07:53.478Z,49.17
2023-04-28T18:10:20.404Z,49.49
2023-04-28T18:12:47.616Z,49.73
2023-04-28T18:15:14.809Z,49.92
2023-04-28T18:17:41.788Z,50.06
2023-04-28T18:20:09.612Z,50.20
2023-04-28T18:22:36.742Z,50.23
2023-04-28T18:25:04.803Z,50.37
2023-04-28T18:27:31.843Z,50.49
2023-04-28T18:29:58.850Z,50.75
2023-04-28T18:32:26.017Z,50.79
2023-04-28T18:34:53.133Z,50.86
2023-04-28T18:37:20.101Z,50.83
2023-04-28T18:39:49.424Z,50.80
2023-04-28T18:42:16.441Z,50.93
2023-04-28T18:44:43.593Z,51.16
2023-04-28T18:47:10.579Z,51.28
2023-04-28T18:49:38.277Z,51.33
2023-04-28T18:52:05.443Z,51.29
2023-04-28T18:54:33.001Z,51.40
2023-04-28T18:57:00.053Z,51.42
2023-04-28T18:59:27.126Z,51.55
2023-04-28T19:01:54.142Z,51.75
2023-04-28T19:04:23.894Z,51.73
2023-04-28T19:06:51.124Z,51.37
2023-04-28T19:09:18.078Z,51.10
2023-04-28T19:11:45.092Z,50.98
2023-04-28T19:14:12.159Z,50.76
2023-04-28T19:16:41.221Z,50.26
2023-04-28T19:19:09.648Z,49.79
2023-04-28T19:21:43.365Z,49.31
2023-04-28T19:24:10.458Z,49.08
2023-04-28T19:26:37.417Z,48.80
2023-04-28T19:29:04.470Z,48.92
2023-04-28T19:31:31.553Z,49.02
2023-04-28T19:33:58.557Z,48.87
2023-04-28T19:36:25.488Z,49.18
2023-04-28T19:38:53.205Z,49.04
2023-04-28T19:41:20.961Z,49.15
2023-04-28T19:43:48.048Z,49.10
2023-04-28T19:46:16.533Z,49.42
2023-04-28T19:48:46.770Z,49.57
2023-04-28T19:51:14.569Z,49.89
2023-04-28T19:53:41.799Z,50.03
2023-04-28T19:56:10.301Z,50.31
2023-04-28T19:58:37.843Z,50.74
2023-04-28T20:01:07.954Z,51.06
2023-04-28T20:03:36.134Z,51.71
2023-04-28T20:06:03.965Z,52.19
2023-04-28T20:08:30.959Z,52.68
2023-04-28T20:10:58.283Z,53.53
2023-04-28T20:13:27.253Z,54.72
2023-04-28T20:15:55.457Z,55.40
2023-04-28T20:18:22.429Z,56.29
2023-04-28T20:20:52.713Z,56.94
2023-04-28T20:23:19.732Z,57.69
2023-04-28T20:25:47.181Z,58.36
2023-04-28T20:28:14.470Z,58.49
2023-04-28T20:30:44.290Z,58.77
2023-04-28T20:33:11.235Z,58.83
2023-04-28T20:35:38.151Z,58.98
2023-04-28T20:38:05.136Z,59.31
2023-04-28T20:40:32.094Z,59.48
2023-04-28T20:43:01.706Z,59.53
2023-04-28T20:45:28.775Z,59.75
2023-04-28T20:47:56.585Z,60.10
2023-04-28T20:50:24.351Z,60.35
2023-04-28T20:52:51.253Z,60.66
2023-04-28T20:55:18.195Z,60.65
2023-04-28T20:57:45.162Z,60.79
2023-04-28T21:00:13.133Z,61.27
2023-04-28T21:02:40.360Z,61.69
2023-04-28T21:05:07.788Z,62.07
2023-04-28T21:07:34.873Z,62.52
2023-04-28T21:10:01.919Z,63.08
2023-04-28T21:12:28.941Z,63.43
2023-04-28T21:14:56.016Z,63.79
2023-04-28T21:17:23.467Z,64.00
2023-04-28T21:19:50.861Z,64.11
2023-04-28T21:22:18.127Z,64.40
2023-04-28T21:24:45.579Z,64.75
2023-04-28T21:27:12.697Z,64.87
2023-04-28T21:29:40.118Z,65.06
2023-04-28T21:32:07.222Z,65.28
2023-04-28T21:34:34.308Z,65.38
2023-04-28T21:37:02.246Z,65.44
2023-04-28T21:39:29.210Z,65.70
2023-04-28T21:41:56.203Z,65.91
2023-04-28T21:44:23.323Z,65.94
2023-04-28T21:46:50.419Z,66.00
2023-04-28T21:49:17.403Z,66.35
2023-04-28T21:51:46.037Z,66.50
2023-04-28T21:54:12.985Z,66.46
2023-04-28T21:56:39.942Z,66.52
2023-04-28T21:59:06.863Z,66.75
2023-04-28T22:01:33.978Z,66.89
2023-04-28T22:04:03.779Z,66.85
2023-04-28T22:06:31.424Z,67.08
2023-04-28T22:08:58.353Z,67.23
2023-04-28T22:11:25.528Z,67.45
2023-04-28T22:13:52.592Z,67.44
2023-04-28T22:16:19.745Z,67.85
2023-04-28T22:18:46.911Z,68.00
2023-04-28T22:21:14.631Z,68.20
2023-04-28T22:23:41.576Z,68.39
2023-04-28T22:26:08.490Z,68.53
2023-04-28T22:28:35.516Z,69.00
2023-04-28T22:31:02.726Z,69.37
2023-04-28T22:33:29.716Z,69.51
2023-04-28T22:35:56.845Z,69.71
2023-04-28T22:38:23.812Z,70.19
2023-04-28T22:40:50.742Z,70.24
2023-04-28T22:43:17.751Z,70.56
2023-04-28T22:45:45.829Z,71.24
2023-04-28T22:48:13.964Z,71.36
2023-04-28T22:50:41.173Z,71.58
2023-04-28T22:53:08.288Z,71.65
2023-04-28T22:55:35.318Z,71.91
2023-04-28T22:58:02.351Z,72.12
2023-04-28T23:00:29.391Z,72.30
2023-04-28T23:02:56.484Z,72.75
2023-04-28T23:05:23.595Z,73.00
2023-04-28T23:07:50.728Z,73.30
2023-04-28T23:10:19.048Z,73.66
2023-04-28T23:12:46.150Z,73.99
2023-04-28T23:15:13.103Z,74.08
2023-04-28T23:17:40.103Z,74.36
2023-04-28T23:20:07.599Z,74.72
2023-04-28T23:22:34.594Z,75.01
2023-04-28T23:25:01.600Z,75.53
2023-04-28T23:27:28.586Z,75.74
2023-04-28T23:29:55.583Z,75.85
2023-04-28T23:32:22.959Z,75.82
2023-04-28T23:34:50.088Z,75.86
2023-04-28T23:37:17.083Z,75.86
2023-04-28T23:39:44.160Z,76.03
2023-04-28T23:42:11.477Z,76.40
2023-04-28T23:44:38.441Z,76.96
2023-04-28T23:47:05.384Z,77.21
2023-04-28T23:49:32.329Z,77.57
2023-04-28T23:51:59.519Z,77.66
2023-04-28T23:54:26.723Z,78.01
2023-04-28T23:56:53.737Z,78.27
2023-04-28T23:59:20.739Z,78.38
